Time;durP1;ratioP1;P1;durP2;ratioP2;P2;SDS_P1;SDS_P2;PMS_P1;PMS_P2;Temp;Humidity;BMP_temperature;BMP_pressure;BME280_temperature;BME280_humidity;BME280_pressure;Samples;Min_cycle;Max_cycle;Signal;HPM_P1;HPM_P2
2022/09/04 00:02:02;;;;;;;5.25;2.97;;;;;;;;;;4990128;28;20276;-62
2022/09/04 00:04:42;;;;;;;4.00;2.53;;;;;;;;;;4990376;28;20390;-62
2022/09/04 00:07:16;;;;;;;4.15;2.17;;;;;;;;;;4989950;28;20512;-62
2022/09/04 00:10:01;;;;;;;3.45;2.10;;;;;;;;;;4972179;28;20400;-62
2022/09/04 00:12:30;;;;;;;3.35;2.17;;;;;;;;;;4990078;28;20414;-62
2022/09/04 00:15:19;;;;;;;;;;;;;;;;;;4972361;28;20348;-62
2022/09/04 00:17:53;;;;;;;3.95;2.70;;;;;;;;;;4978924;28;19912;-61
2022/09/04 00:20:32;;;;;;;4.18;2.20;;;;;;;;;;4972441;28;20498;-62
2022/09/04 00:23:13;;;;;;;3.65;2.45;;;;;;;;;;4972760;28;20025;-62
2022/09/04 00:26:01;;;;;;;3.08;2.30;;;;;;;;;;4971721;28;20519;-62
2022/09/04 00:29:09;;;;;;;3.28;2.20;;;;;;;;;;4971599;28;20391;-62
2022/09/04 00:31:49;;;;;;;3.05;2.03;;;;;;;;;;4928330;28;20457;-62
2022/09/04 00:34:47;;;;;;;3.97;2.90;;;;;;;;;;4928665;28;20405;-62
2022/09/04 00:37:15;;;;;;;4.00;2.42;;;;;;;;;;4976091;28;20509;-63
2022/09/04 00:39:49;;;;;;;3.28;2.47;;;;;;;;;;4971499;28;20479;-62
2022/09/04 00:42:36;;;;;;;3.20;2.33;;;;;;;;;;4971216;28;20503;-62
2022/09/04 00:45:18;;;;;;;3.80;2.83;;;;;;;;;;4989160;28;20467;-61
2022/09/04 00:48:09;;;;;;;4.35;2.60;;;;;;;;;;4971335;28;20586;-62
2022/09/04 00:51:02;;;;;;;3.38;2.45;;;;;;;;;;4971505;28;20467;-63
2022/09/04 00:53:49;;;;;;;5.15;2.97;;;;;;;;;;4989362;28;20444;-62
2022/09/04 00:56:39;;;;;;;4.88;2.75;;;;;;;;;;4970520;28;20384;-62
2022/09/04 00:59:11;;;;;;;4.82;3.38;;;;;;;;;;4971435;28;20489;-62
2022/09/04 01:01:36;;;;;;;3.25;2.47;;;;;;;;;;4977882;28;20141;-62
2022/09/04 01:04:28;;;;;;;6.75;2.63;;;;;;;;;;4957993;28;20022;-62
2022/09/04 01:06:59;;;;;;;3.92;2.65;;;;;;;;;;4949887;28;20377;-62
2022/09/04 01:09:51;;;;;;;4.55;2.83;;;;;;;;;;4951230;28;20467;-62
2022/09/04 01:12:26;;;;;;;5.70;2.85;;;;;;;;;;4947864;28;20469;-62
2022/09/04 01:15:13;;;;;;;5.70;2.83;;;;;;;;;;4949268;28;20056;-62
2022/09/04 01:17:48;;;;;;;3.58;2.40;;;;;;;;;;4932842;28;20306;-62
2022/09/04 01:20:27;;;;;;;3.88;2.65;;;;;;;;;;4932305;28;20401;-61
2022/09/04 01:23:01;;;;;;;4.63;3.05;;;;;;;;;;4949201;28;20147;-62
2022/09/04 01:26:04;;;;;;;5.78;3.08;;;;;;;;;;4949984;28;20424;-62
2022/09/04 01:28:44;;;;;;;4.57;2.88;;;;;;;;;;4949045;28;20396;-62
2022/09/04 01:31:24;;;;;;;4.00;2.90;;;;;;;;;;4948524;28;20388;-62
2022/09/04 01:34:17;;;;;;;4.82;3.30;;;;;;;;;;4948003;28;20491;-62
2022/09/04 01:36:57;;;;;;;3.97;2.90;;;;;;;;;;4949561;28;20441;-62
2022/09/04 01:39:24;;;;;;;5.45;3.13;;;;;;;;;;4949763;28;20439;-62
2022/09/04 01:42:00;;;;;;;5.68;3.42;;;;;;;;;;4932037;28;20441;-62
2022/09/04 01:44:26;;;;;;;4.38;2.95;;;;;;;;;;4947395;28;20026;-62
2022/09/04 01:47:10;;;;;;;3.75;2.60;;;;;;;;;;4951564;28;20048;-62
2022/09/04 01:49:59;;;;;;;4.93;2.83;;;;;;;;;;4940966;28;20537;-62
2022/09/04 01:52:35;;;;;;;;;;;;;;;;;;4947685;28;20515;-62
2022/09/04 01:55:09;;;;;;;5.28;2.97;;;;;;;;;;4948924;28;20386;-61
2022/09/04 01:57:57;;;;;;;5.63;2.97;;;;;;;;;;4966472;28;20356;-62
2022/09/04 02:00:23;;;;;;;3.78;2.67;;;;;;;;;;4966827;28;20448;-62
2022/09/04 02:02:55;;;;;;;6.65;3.10;;;;;;;;;;4950373;28;20391;-62
2022/09/04 02:05:30;;;;;;;6.07;3.20;;;;;;;;;;4950602;28;20463;-62
2022/09/04 02:08:05;;;;;;;6.47;3.90;;;;;;;;;;4968146;28;20444;-62
2022/09/04 02:10:55;;;;;;;5.03;2.88;;;;;;;;;;4968048;28;20440;-62
2022/09/04 02:13:21;;;;;;;5.38;3.00;;;;;;;;;;4968482;28;20506;-62
2022/09/04 02:15:49;;;;;;;5.55;3.00;;;;;;;;;;4969427;28;20479;-62
2022/09/04 02:18:25;;;;;;;3.72;2.78;;;;;;;;;;4968718;28;20336;-62
2022/09/04 02:21:05;;;;;;;3.80;2.67;;;;;;;;;;4968726;28;20455;-62
2022/09/04 02:23:34;;;;;;;3.85;2.58;;;;;;;;;;4950536;28;20030;-62
2022/09/04 02:26:06;;;;;;;3.95;2.65;;;;;;;;;;4970288;28;20116;-62
2022/09/04 02:28:52;;;;;;;4.30;3.05;;;;;;;;;;4967850;28;20463;-62
2022/09/04 02:31:23;;;;;;;5.13;3.22;;;;;;;;;;4968392;28;20396;-62
2022/09/04 02:34:04;;;;;;;5.88;2.72;;;;;;;;;;4970107;28;20037;-66
2022/09/04 02:36:35;;;;;;;6.95;3.15;;;;;;;;;;4968174;28;20372;-62
2022/09/04 02:39:11;;;;;;;4.65;3.22;;;;;;;;;;4967953;28;20518;-62
2022/09/04 02:41:42;;;;;;;5.32;3.22;;;;;;;;;;4950236;28;20474;-62
2022/09/04 02:44:33;;;;;;;6.88;3.17;;;;;;;;;;4969420;28;20459;-62
2022/09/04 02:47:11;;;;;;;4.82;2.97;;;;;;;;;;4971911;28;20167;-62
2022/09/04 02:49:57;;;;;;;4.20;2.72;;;;;;;;;;4955303;28;20025;-62
2022/09/04 02:52:32;;;;;;;5.55;3.08;;;;;;;;;;4973679;28;20397;-62
2022/09/04 02:55:29;;;;;;;6.72;3.28;;;;;;;;;;4954380;28;20025;-62
2022/09/04 02:58:24;;;;;;;5.38;3.33;;;;;;;;;;4972365;28;20364;-63
2022/09/04 03:01:01;;;;;;;5.10;2.95;;;;;;;;;;4954667;28;20453;-62
2022/09/04 03:03:32;;;;;;;6.45;3.40;;;;;;;;;;4954181;28;20356;-62
2022/09/04 03:06:21;;;;;;;5.32;3.40;;;;;;;;;;4971912;28;20037;-62
2022/09/04 03:09:00;;;;;;;3.20;2.40;;;;;;;;;;4935459;28;20471;-62
2022/09/04 03:11:30;;;;;;;5.50;3.50;;;;;;;;;;4971603;28;20437;-63
2022/09/04 03:14:03;;;;;;;4.82;3.08;;;;;;;;;;4953074;28;20437;-62
2022/09/04 03:16:46;;;;;;;7.50;3.10;;;;;;;;;;4954206;28;20392;-62
2022/09/04 03:19:21;;;;;;;4.68;3.30;;;;;;;;;;4953330;28;20372;-62
2022/09/04 03:22:23;;;;;;;4.57;3.10;;;;;;;;;;4971007;28;20391;-62
2022/09/04 03:24:48;;;;;;;4.35;3.10;;;;;;;;;;4932776;28;20356;-62
2022/09/04 03:27:14;;;;;;;6.82;3.50;;;;;;;;;;4970892;28;20344;-62
2022/09/04 03:29:45;;;;;;;5.15;2.85;;;;;;;;;;4971430;28;20033;-62
2022/09/04 03:32:27;;;;;;;5.93;3.47;;;;;;;;;;4970820;28;20041;-62
2022/09/04 03:34:59;;;;;;;4.65;3.22;;;;;;;;;;4952936;28;20364;-62
2022/09/04 03:37:49;;;;;;;4.80;3.10;;;;;;;;;;4953330;28;20104;-63
2022/09/04 03:40:32;;;;;;;4.70;3.33;;;;;;;;;;4971659;28;20060;-63
2022/09/04 03:43:13;;;;;;;4.13;3.03;;;;;;;;;;4970668;28;20399;-62
2022/09/04 03:45:50;;;;;;;3.88;3.00;;;;;;;;;;4971164;28;20029;-62
2022/09/04 03:48:50;;;;;;;3.60;2.88;;;;;;;;;;4970793;28;20468;-62
2022/09/04 03:51:24;;;;;;;4.78;3.10;;;;;;;;;;4968807;28;20460;-62
2022/09/04 03:54:05;;;;;;;6.50;3.17;;;;;;;;;;4953148;28;20474;-62
2022/09/04 03:56:46;;;;;;;6.47;3.10;;;;;;;;;;4970676;28;20476;-62
2022/09/04 03:59:40;;;;;;;4.53;2.70;;;;;;;;;;4970272;28;20401;-62
2022/09/04 04:02:27;;;;;;;4.50;3.30;;;;;;;;;;4952816;28;20472;-62
2022/09/04 04:04:53;;;;;;;5.90;3.25;;;;;;;;;;4970418;28;20471;-62
2022/09/04 04:07:34;;;;;;;6.60;3.50;;;;;;;;;;4970556;28;20452;-62
2022/09/04 04:10:06;;;;;;;4.85;3.20;;;;;;;;;;4970259;28;20404;-62
2022/09/04 04:13:00;;;;;;;5.10;3.00;;;;;;;;;;4969893;28;20029;-62
2022/09/04 04:15:35;;;;;;;4.20;3.17;;;;;;;;;;4970575;28;20327;-62
2022/09/04 04:18:42;;;;;;;6.43;3.63;;;;;;;;;;4952639;28;20056;-62
2022/09/04 04:21:12;;;;;;;5.90;3.80;;;;;;;;;;4969760;28;20514;-63
2022/09/04 04:23:57;;;;;;;5.50;3.55;;;;;;;;;;4951950;28;20512;-63
2022/09/04 04:26:29;;;;;;;6.38;3.20;;;;;;;;;;4951887;28;20464;-62
2022/09/04 04:29:05;;;;;;;6.60;3.95;;;;;;;;;;4952165;28;20425;-62
2022/09/04 04:31:44;;;;;;;7.90;3.60;;;;;;;;;;4969481;28;20470;-62
2022/09/04 04:34:16;;;;;;;;;;;;;;;;;;4968733;28;20475;-62
2022/09/04 04:36:58;;;;;;;5.95;3.83;;;;;;;;;;4969697;28;20286;-62
2022/09/04 04:39:43;;;;;;;4.70;3.10;;;;;;;;;;4969892;28;20463;-62
2022/09/04 04:42:34;;;;;;;5.53;3.30;;;;;;;;;;4951951;28;20104;-62
2022/09/04 04:48:41;;;;;;;4.38;3.45;;;;;;;;;;4954461;28;20403;-62
2022/09/04 04:51:30;;;;;;;5.45;3.35;;;;;;;;;;4969190;28;20479;-62
2022/09/04 04:54:21;;;;;;;4.97;3.53;;;;;;;;;;4970029;28;20355;-62
2022/09/04 04:57:16;;;;;;;4.60;3.20;;;;;;;;;;4968976;28;20526;-62
2022/09/04 04:59:53;;;;;;;3.80;3.08;;;;;;;;;;4968591;28;20476;-62
2022/09/04 05:02:43;;;;;;;4.60;3.25;;;;;;;;;;4970394;28;20095;-62
2022/09/04 05:05:14;;;;;;;6.57;3.85;;;;;;;;;;4968951;28;20060;-62
2022/09/04 05:08:07;;;;;;;4.72;3.08;;;;;;;;;;4950442;28;20421;-62
2022/09/04 05:10:38;;;;;;;5.03;3.20;;;;;;;;;;4951750;28;20440;-62
2022/09/04 05:14:01;;;;;;;5.13;3.40;;;;;;;;;;4951397;28;20428;-62
2022/09/04 05:16:47;;;;;;;4.82;3.15;;;;;;;;;;4927427;28;20348;-62
2022/09/04 05:19:34;;;;;;;4.68;3.10;;;;;;;;;;4927470;28;20461;-62
2022/09/04 05:22:17;;;;;;;4.68;3.22;;;;;;;;;;4963205;28;20471;-62
2022/09/04 05:25:26;;;;;;;4.43;3.17;;;;;;;;;;4968396;28;20433;-62
2022/09/04 05:28:15;;;;;;;4.63;3.00;;;;;;;;;;4932290;28;20519;-63
2022/09/04 05:31:08;;;;;;;3.70;2.83;;;;;;;;;;4968288;28;20448;-63
2022/09/04 05:33:40;;;;;;;5.50;3.97;;;;;;;;;;4968150;28;20423;-62
2022/09/04 05:36:15;;;;;;;3.72;2.65;;;;;;;;;;4969271;28;20397;-62
2022/09/04 05:39:04;;;;;;;6.93;3.45;;;;;;;;;;4968719;28;20452;-62
2022/09/04 05:41:42;;;;;;;4.47;3.05;;;;;;;;;;4968831;28;20306;-62
2022/09/04 05:44:10;;;;;;;4.97;3.53;;;;;;;;;;4968405;28;20415;-62
2022/09/04 05:47:10;;;;;;;4.78;3.28;;;;;;;;;;4968207;28;20476;-62
2022/09/04 05:49:45;;;;;;;6.00;3.03;;;;;;;;;;4950496;28;20540;-62
2022/09/04 05:52:25;;;;;;;4.05;2.90;;;;;;;;;;4967917;28;20491;-62
2022/09/04 05:55:02;;;;;;;4.72;3.10;;;;;;;;;;4968150;28;20444;-62
2022/09/04 05:57:40;;;;;;;4.72;3.28;;;;;;;;;;4967799;28;20140;-62
2022/09/04 06:00:15;;;;;;;4.95;2.95;;;;;;;;;;4966574;28;20060;-62
2022/09/04 06:02:59;;;;;;;6.28;3.45;;;;;;;;;;4950118;28;20491;-62
2022/09/04 06:05:39;;;;;;;3.45;2.65;;;;;;;;;;4967900;28;20423;-62
2022/09/04 06:08:31;;;;;;;9.10;3.30;;;;;;;;;;4967942;28;20468;-63
2022/09/04 06:11:19;;;;;;;4.22;2.97;;;;;;;;;;4966387;28;20409;-62
2022/09/04 06:13:50;;;;;;;4.78;2.95;;;;;;;;;;4967944;28;20509;-62
2022/09/04 06:16:34;;;;;;;4.43;3.25;;;;;;;;;;4967832;28;20069;-62
2022/09/04 06:19:21;;;;;;;4.10;2.75;;;;;;;;;;4970977;28;20527;-62
2022/09/04 06:21:59;;;;;;;3.80;3.05;;;;;;;;;;4954006;28;20432;-62
2022/09/04 06:25:02;;;;;;;5.80;2.95;;;;;;;;;;4953978;28;20096;-62
2022/09/04 06:27:40;;;;;;;3.88;2.70;;;;;;;;;;4971571;28;20376;-62
2022/09/04 06:30:08;;;;;;;5.10;3.25;;;;;;;;;;4938542;28;20352;-62
2022/09/04 06:32:53;;;;;;;6.10;3.05;;;;;;;;;;4954022;28;20116;-62
2022/09/04 06:35:31;;;;;;;3.45;2.50;;;;;;;;;;4971715;28;20382;-62
2022/09/04 06:38:37;;;;;;;4.68;2.67;;;;;;;;;;4954531;28;20025;-62
2022/09/04 06:41:28;;;;;;;3.95;2.85;;;;;;;;;;4971912;28;20045;-62
2022/09/04 06:44:24;;;;;;;3.40;2.45;;;;;;;;;;4973691;28;20498;-63
2022/09/04 06:46:52;;;;;;;5.20;2.20;;;;;;;;;;4971765;28;20478;-62
2022/09/04 06:49:42;;;;;;;3.95;2.85;;;;;;;;;;4971228;28;20472;-62
2022/09/04 06:52:21;;;;;;;3.38;2.17;;;;;;;;;;4971677;28;20331;-62
2022/09/04 06:54:59;;;;;;;3.85;2.58;;;;;;;;;;4971231;28;20396;-62
2022/09/04 06:58:04;;;;;;;3.60;2.20;;;;;;;;;;4970782;28;20457;-62
2022/09/04 07:00:37;;;;;;;5.10;2.22;;;;;;;;;;4971213;28;20432;-62
2022/09/04 07:03:27;;;;;;;2.55;2.10;;;;;;;;;;4953703;28;20506;-62
2022/09/04 07:06:08;;;;;;;3.75;2.30;;;;;;;;;;4972107;28;20341;-62
2022/09/04 07:08:58;;;;;;;2.58;1.90;;;;;;;;;;4971177;28;20483;-62
2022/09/04 07:12:03;;;;;;;2.70;1.70;;;;;;;;;;4969531;28;20440;-62
2022/09/04 07:14:58;;;;;;;3.08;2.30;;;;;;;;;;4971407;28;20372;-62
2022/09/04 07:17:32;;;;;;;2.92;2.25;;;;;;;;;;4971226;28;20383;-62
2022/09/04 07:20:29;;;;;;;3.50;1.85;;;;;;;;;;4952936;28;20483;-62
2022/09/04 07:23:01;;;;;;;3.53;1.95;;;;;;;;;;4971814;28;20344;-62
2022/09/04 07:25:39;;;;;;;5.90;2.20;;;;;;;;;;4953168;28;20437;-62
2022/09/04 07:28:29;;;;;;;5.28;1.98;;;;;;;;;;4970707;28;20065;-62
2022/09/04 07:31:33;;;;;;;2.33;1.92;;;;;;;;;;4969779;28;20073;-62
2022/09/04 07:34:23;;;;;;;7.32;1.92;;;;;;;;;;4953121;28;20063;-62
2022/09/04 07:37:10;;;;;;;3.63;1.83;;;;;;;;;;4970858;28;20033;-62
2022/09/04 07:39:51;;;;;;;2.17;1.77;;;;;;;;;;4971764;28;20440;-62
2022/09/04 07:42:21;;;;;;;2.15;1.60;;;;;;;;;;4952799;28;20384;-62
2022/09/04 07:44:49;;;;;;;3.33;1.77;;;;;;;;;;4970510;28;20456;-62
2022/09/04 07:47:42;;;;;;;3.78;2.40;;;;;;;;;;4952470;28;20033;-62
2022/09/04 07:50:24;;;;;;;2.03;1.52;;;;;;;;;;4950691;28;20104;-62
2022/09/04 07:53:01;;;;;;;2.40;1.50;;;;;;;;;;4971340;28;20582;-62
2022/09/04 07:55:26;;;;;;;1.98;1.50;;;;;;;;;;4952731;28;20384;-62
2022/09/04 07:58:05;;;;;;;2.22;1.48;;;;;;;;;;4969934;28;20345;-62
2022/09/04 08:00:55;;;;;;;1.98;1.23;;;;;;;;;;4970240;28;20491;-62
2022/09/04 08:03:41;;;;;;;3.22;1.65;;;;;;;;;;4971284;28;20424;-62
2022/09/04 08:06:21;;;;;;;1.98;1.48;;;;;;;;;;4952240;28;20471;-62
2022/09/04 08:08:53;;;;;;;1.40;1.17;;;;;;;;;;4970513;28;20021;-62
2022/09/04 08:11:44;;;;;;;1.60;1.10;;;;;;;;;;4969829;28;20044;-62
2022/09/04 08:14:35;;;;;;;1.85;1.35;;;;;;;;;;4952289;28;20064;-62
2022/09/04 08:17:35;;;;;;;5.22;1.20;;;;;;;;;;4952277;28;20084;-62
2022/09/04 08:20:20;;;;;;;3.65;1.23;;;;;;;;;;4969769;28;20444;-62
2022/09/04 08:22:45;;;;;;;1.92;1.30;;;;;;;;;;4969871;28;20099;-62
2022/09/04 08:25:49;;;;;;;1.33;0.88;;;;;;;;;;4969733;28;20433;-62
2022/09/04 08:28:32;;;;;;;2.17;1.35;;;;;;;;;;4968130;28;20095;-62
2022/09/04 08:31:17;;;;;;;1.48;1.17;;;;;;;;;;4951872;28;20045;-62
2022/09/04 08:34:14;;;;;;;1.60;1.02;;;;;;;;;;4970833;28;20458;-62
2022/09/04 08:37:11;;;;;;;1.83;1.10;;;;;;;;;;4969491;28;20483;-62
2022/09/04 08:40:22;;;;;;;1.13;0.90;;;;;;;;;;4936239;28;20415;-62
2022/09/04 08:43:04;;;;;;;1.45;0.98;;;;;;;;;;4958998;28;20444;-62
2022/09/04 08:46:06;;;;;;;2.03;1.02;;;;;;;;;;4969841;28;20145;-62
2022/09/04 08:48:56;;;;;;;1.70;1.13;;;;;;;;;;4969370;28;20073;-62
2022/09/04 08:51:39;;;;;;;3.05;1.08;;;;;;;;;;4968977;28;20437;-62
2022/09/04 08:54:24;;;;;;;1.92;1.30;;;;;;;;;;4969805;28;20115;-62
2022/09/04 08:57:15;;;;;;;1.67;1.15;;;;;;;;;;4969120;28;20364;-62
2022/09/04 09:00:04;;;;;;;1.38;1.13;;;;;;;;;;4951201;28;20104;-62
2022/09/04 09:03:03;;;;;;;1.13;1.02;;;;;;;;;;4968821;28;20379;-62
2022/09/04 09:05:37;;;;;;;;;;;;;;;;;;4969234;28;20491;-62
2022/09/04 09:08:13;;;;;;;2.33;1.30;;;;;;;;;;4951807;28;19935;-62
2022/09/04 09:10:41;;;;;;;1.85;1.02;;;;;;;;;;4950990;28;20357;-62
2022/09/04 09:13:33;;;;;;;2.00;1.02;;;;;;;;;;4969015;28;20345;-62
2022/09/04 09:16:21;;;;;;;1.80;1.40;;;;;;;;;;4938358;28;20409;-62
2022/09/04 09:18:56;;;;;;;1.52;1.13;;;;;;;;;;4967467;28;20359;-63
2022/09/04 09:21:43;;;;;;;1.25;1.02;;;;;;;;;;4968528;28;20456;-62
2022/09/04 09:24:30;;;;;;;2.97;1.10;;;;;;;;;;4968626;28;20542;-62
2022/09/04 09:27:14;;;;;;;1.17;1.08;;;;;;;;;;4969137;28;20428;-62
2022/09/04 09:30:01;;;;;;;1.73;1.05;;;;;;;;;;4968374;28;20077;-62
2022/09/04 09:32:27;;;;;;;1.35;0.95;;;;;;;;;;4950899;28;20510;-62
2022/09/04 09:35:15;;;;;;;1.20;1.10;;;;;;;;;;4969274;28;20515;-62
2022/09/04 09:37:46;;;;;;;1.40;1.05;;;;;;;;;;4968308;28;20438;-62
2022/09/04 09:40:26;;;;;;;0.70;0.70;;;;;;;;;;4968393;28;20030;-62
2022/09/04 09:43:19;;;;;;;2.03;1.30;;;;;;;;;;4968381;28;20511;-62
2022/09/04 09:46:14;;;;;;;1.25;1.10;;;;;;;;;;4968259;28;20379;-62
2022/09/04 09:48:57;;;;;;;3.30;1.20;;;;;;;;;;4927938;28;20448;-62
2022/09/04 09:51:27;;;;;;;1.50;1.00;;;;;;;;;;4968035;28;20397;-62
2022/09/04 09:54:36;;;;;;;1.58;0.90;;;;;;;;;;4951079;28;20391;-62
2022/09/04 09:57:01;;;;;;;1.73;1.05;;;;;;;;;;4966417;28;20360;-62
2022/09/04 10:00:05;;;;;;;2.10;1.30;;;;;;;;;;4968584;28;20387;-62
2022/09/04 10:03:01;;;;;;;1.10;1.00;;;;;;;;;;4969468;28;20415;-62
2022/09/04 10:05:44;;;;;;;1.40;1.20;;;;;;;;;;4967927;28;20388;-62
2022/09/04 10:08:16;;;;;;;1.10;0.98;;;;;;;;;;4950702;28;20041;-62
2022/09/04 10:10:50;;;;;;;1.73;1.00;;;;;;;;;;4967823;28;20429;-62
2022/09/04 10:13:34;;;;;;;1.15;0.80;;;;;;;;;;4968106;28;20436;-62
2022/09/04 10:16:23;;;;;;;0.95;0.80;;;;;;;;;;4968509;28;20372;-62
2022/09/04 10:19:22;;;;;;;1.77;0.98;;;;;;;;;;4950530;28;20459;-62
2022/09/04 10:21:57;;;;;;;1.63;1.20;;;;;;;;;;4967886;28;20034;-62
2022/09/04 10:24:35;;;;;;;1.27;0.98;;;;;;;;;;4967821;28;20463;-62
2022/09/04 10:27:27;;;;;;;1.35;0.93;;;;;;;;;;4967981;28;20500;-62
2022/09/04 10:30:11;;;;;;;1.52;1.17;;;;;;;;;;4968008;28;20380;-62
2022/09/04 10:33:19;;;;;;;1.15;0.90;;;;;;;;;;4967738;28;20056;-62
2022/09/04 10:36:26;;;;;;;0.88;0.80;;;;;;;;;;4936907;28;20456;-62
2022/09/04 10:42:05;;;;;;;1.15;1.02;;;;;;;;;;4967673;28;20475;-62
2022/09/04 10:44:44;;;;;;;1.08;0.85;;;;;;;;;;4967918;28;20488;-62
2022/09/04 10:47:18;;;;;;;;;;;;;;;;;;4950299;28;20457;-62
2022/09/04 10:49:55;;;;;;;4.07;1.10;;;;;;;;;;4967506;28;20353;-63
2022/09/04 10:53:00;;;;;;;1.58;1.00;;;;;;;;;;4967719;28;20535;-62
2022/09/04 10:55:49;;;;;;;1.23;1.05;;;;;;;;;;4887844;29;20411;-63
2022/09/04 10:58:27;;;;;;;1.13;0.93;;;;;;;;;;4887945;29;20450;-63
2022/09/04 11:01:12;;;;;;;1.67;1.20;;;;;;;;;;4943648;28;20483;-62
2022/09/04 11:03:57;;;;;;;1.77;1.10;;;;;;;;;;4967928;28;20781;-62
2022/09/04 11:07:09;;;;;;;1.90;1.00;;;;;;;;;;4971629;28;20391;-63
2022/09/04 11:09:53;;;;;;;1.40;1.20;;;;;;;;;;4970861;28;20445;-62
2022/09/04 11:12:21;;;;;;;1.35;1.00;;;;;;;;;;4970883;28;20504;-62
2022/09/04 11:14:55;;;;;;;1.80;1.17;;;;;;;;;;4971062;28;20092;-62
2022/09/04 11:17:31;;;;;;;2.78;1.15;;;;;;;;;;4971389;28;20428;-62
2022/09/04 11:20:30;;;;;;;1.50;1.10;;;;;;;;;;4953036;28;20029;-63
2022/09/04 11:23:08;;;;;;;6.43;1.25;;;;;;;;;;4970611;28;20033;-63
2022/09/04 11:26:04;;;;;;;1.85;1.40;;;;;;;;;;4971277;28;20380;-63
2022/09/04 11:28:49;;;;;;;1.67;1.00;;;;;;;;;;4971428;28;20453;-62
2022/09/04 11:31:28;;;;;;;2.85;1.00;;;;;;;;;;4970761;28;20353;-62
2022/09/04 11:34:02;;;;;;;1.83;1.15;;;;;;;;;;4971106;28;20167;-63
2022/09/04 11:37:05;;;;;;;1.63;1.20;;;;;;;;;;4952844;28;20408;-62
2022/09/04 11:39:36;;;;;;;2.17;1.10;;;;;;;;;;4970509;28;20444;-62
2022/09/04 11:42:11;;;;;;;1.75;1.35;;;;;;;;;;4970571;28;20510;-62
2022/09/04 11:45:19;;;;;;;1.25;1.10;;;;;;;;;;4971112;28;20567;-62
2022/09/04 11:48:03;;;;;;;1.30;1.20;;;;;;;;;;4931509;28;20453;-62
2022/09/04 11:50:42;;;;;;;1.35;1.02;;;;;;;;;;4969966;28;20436;-62
2022/09/04 11:53:22;;;;;;;1.58;1.13;;;;;;;;;;4970109;28;20440;-62
2022/09/04 11:56:05;;;;;;;1.15;1.00;;;;;;;;;;4952183;28;20356;-62
2022/09/04 11:58:58;;;;;;;1.27;1.05;;;;;;;;;;4952974;28;20428;-62
2022/09/04 12:01:26;;;;;;;1.20;1.10;;;;;;;;;;4970069;28;20494;-62
2022/09/04 12:04:21;;;;;;;1.47;1.07;;;;;;;;;;4969906;28;20444;-62
2022/09/04 12:07:07;;;;;;;1.10;1.00;;;;;;;;;;4968483;28;20747;-62
2022/09/04 12:09:38;;;;;;;2.97;1.33;;;;;;;;;;4969849;28;20116;-62
2022/09/04 12:12:21;;;;;;;1.30;1.05;;;;;;;;;;4969821;28;20091;-62
2022/09/04 12:14:57;;;;;;;1.10;1.00;;;;;;;;;;4969850;28;20460;-62
2022/09/04 12:18:00;;;;;;;1.30;1.20;;;;;;;;;;4970560;28;20456;-62
2022/09/04 12:20:54;;;;;;;1.20;0.82;;;;;;;;;;4970063;28;20103;-62
2022/09/04 12:23:31;;;;;;;1.45;1.10;;;;;;;;;;4969899;28;20452;-62
2022/09/04 12:26:20;;;;;;;1.48;1.13;;;;;;;;;;4970957;28;20437;-63
2022/09/04 12:29:04;;;;;;;0.98;0.88;;;;;;;;;;4968068;28;20033;-63
2022/09/04 12:31:51;;;;;;;0.95;0.85;;;;;;;;;;4970914;28;20357;-63
2022/09/04 12:34:38;;;;;;;1.25;1.10;;;;;;;;;;4951837;28;20448;-63
2022/09/04 12:37:18;;;;;;;1.50;0.98;;;;;;;;;;4969413;28;20103;-63
2022/09/04 12:40:09;;;;;;;1.55;0.90;;;;;;;;;;4952086;28;20030;-62
2022/09/04 12:43:15;;;;;;;2.42;1.15;;;;;;;;;;4969698;28;20468;-63
2022/09/04 12:46:04;;;;;;;2.63;0.82;;;;;;;;;;4969930;28;20345;-63
2022/09/04 12:48:59;;;;;;;4.70;0.90;;;;;;;;;;4952539;28;20460;-62
2022/09/04 12:51:30;;;;;;;1.38;1.08;;;;;;;;;;4970788;28;20052;-62
2022/09/04 12:54:26;;;;;;;1.00;0.90;;;;;;;;;;4951425;28;20021;-62
2022/09/04 12:57:26;;;;;;;1.15;0.90;;;;;;;;;;4969231;28;20526;-62
2022/09/04 13:00:10;;;;;;;2.08;1.23;;;;;;;;;;4947571;28;20428;-62
2022/09/04 13:02:39;;;;;;;1.52;0.98;;;;;;;;;;4968961;28;20476;-62
2022/09/04 13:05:04;;;;;;;1.55;1.25;;;;;;;;;;4969193;28;20429;-62
2022/09/04 13:07:42;;;;;;;1.73;1.10;;;;;;;;;;4970710;28;20167;-62
2022/09/04 13:10:31;;;;;;;1.40;1.00;;;;;;;;;;4969107;28;20065;-62
2022/09/04 13:13:28;;;;;;;1.27;1.17;;;;;;;;;;4969021;28;20395;-62
2022/09/04 13:16:08;;;;;;;1.58;1.13;;;;;;;;;;4951095;28;20053;-62
2022/09/04 13:18:43;;;;;;;2.50;1.33;;;;;;;;;;4968875;28;20021;-62
2022/09/04 13:21:11;;;;;;;1.38;1.10;;;;;;;;;;4950989;28;20471;-62
2022/09/04 13:23:57;;;;;;;1.38;1.10;;;;;;;;;;4968644;28;20341;-62
2022/09/04 13:27:08;;;;;;;1.90;1.08;;;;;;;;;;4969809;28;20519;-63
2022/09/04 13:29:39;;;;;;;1.92;1.05;;;;;;;;;;4953055;28;20415;-62
2022/09/04 13:32:39;;;;;;;1.67;1.20;;;;;;;;;;4950699;28;20361;-62
2022/09/04 13:35:16;;;;;;;1.25;0.90;;;;;;;;;;4968694;28;20394;-63
2022/09/04 13:38:39;;;;;;;2.10;1.00;;;;;;;;;;4968379;28;20475;-63
2022/09/04 13:41:42;;;;;;;1.52;1.00;;;;;;;;;;4968289;28;20551;-62
2022/09/04 13:44:10;;;;;;;2.70;1.08;;;;;;;;;;4968624;28;20376;-63
2022/09/04 13:47:07;;;;;;;1.25;0.93;;;;;;;;;;4968554;28;20408;-63
2022/09/04 13:49:47;;;;;;;1.58;1.08;;;;;;;;;;4968252;28;20429;-62
2022/09/04 13:52:16;;;;;;;2.88;1.40;;;;;;;;;;4968652;28;20448;-62
2022/09/04 13:54:46;;;;;;;2.13;1.13;;;;;;;;;;4968228;28;20395;-62
2022/09/04 13:57:26;;;;;;;1.67;1.27;;;;;;;;;;4968008;28;20471;-62
2022/09/04 13:59:59;;;;;;;1.23;1.10;;;;;;;;;;4952350;28;20021;-62
2022/09/04 14:02:26;;;;;;;1.73;1.10;;;;;;;;;;4967909;28;20463;-61
2022/09/04 14:04:59;;;;;;;1.75;1.48;;;;;;;;;;4950607;28;20432;-61
2022/09/04 14:07:31;;;;;;;6.20;1.92;;;;;;;;;;4968755;28;20395;-61
2022/09/04 14:09:59;;;;;;;1.73;1.50;;;;;;;;;;4968827;28;20433;-62
2022/09/04 14:12:40;;;;;;;1.60;1.25;;;;;;;;;;4950732;28;20349;-62
2022/09/04 14:15:36;;;;;;;1.60;1.23;;;;;;;;;;4968866;28;20033;-61
2022/09/04 14:18:24;;;;;;;1.70;1.20;;;;;;;;;;4968923;28;20376;-62
2022/09/04 14:20:59;;;;;;;1.40;1.30;;;;;;;;;;4950212;28;20610;-62
2022/09/04 14:24:02;;;;;;;2.05;1.40;;;;;;;;;;4950100;28;20401;-62
2022/09/04 14:26:52;;;;;;;3.28;1.27;;;;;;;;;;4943661;28;20469;-62
2022/09/04 14:29:27;;;;;;;1.40;1.20;;;;;;;;;;4967653;28;20445;-62
2022/09/04 14:32:09;;;;;;;2.00;1.27;;;;;;;;;;4968474;28;20403;-62
2022/09/04 14:35:12;;;;;;;2.40;1.33;;;;;;;;;;4967919;28;20475;-62
2022/09/04 14:37:37;;;;;;;2.00;1.30;;;;;;;;;;4967959;28;20325;-62
2022/09/04 14:40:14;;;;;;;1.88;1.30;;;;;;;;;;4971292;28;20037;-62
2022/09/04 14:42:57;;;;;;;4.25;1.50;;;;;;;;;;4973668;28;20329;-66
2022/09/04 14:45:27;;;;;;;3.33;1.48;;;;;;;;;;4954171;28;20319;-61
2022/09/04 14:48:02;;;;;;;2.63;1.50;;;;;;;;;;4971906;28;20391;-62
2022/09/04 14:50:56;;;;;;;2.72;1.10;;;;;;;;;;4954000;28;20359;-61
2022/09/04 14:53:34;;;;;;;2.25;1.45;;;;;;;;;;4954066;28;20453;-61
2022/09/04 14:56:05;;;;;;;4.45;1.60;;;;;;;;;;4972227;28;20469;-62
2022/09/04 14:58:35;;;;;;;2.15;1.25;;;;;;;;;;4971170;28;20463;-62
2022/09/04 15:01:20;;;;;;;2.28;1.40;;;;;;;;;;4971386;28;20351;-62
2022/09/04 15:04:15;;;;;;;2.30;1.50;;;;;;;;;;4972218;28;20446;-61
2022/09/04 15:07:15;;;;;;;1.75;1.50;;;;;;;;;;4970440;28;20041;-63
2022/09/04 15:09:42;;;;;;;2.72;1.50;;;;;;;;;;4971246;28;20436;-62
2022/09/04 15:12:21;;;;;;;2.03;1.27;;;;;;;;;;4971236;28;20329;-61
2022/09/04 15:14:54;;;;;;;6.80;1.60;;;;;;;;;;4971359;28;20392;-62
2022/09/04 15:17:27;;;;;;;1.63;1.35;;;;;;;;;;4953588;28;20555;-62
2022/09/04 15:20:00;;;;;;;2.40;1.70;;;;;;;;;;4953582;28;20440;-62
2022/09/04 15:22:31;;;;;;;3.33;1.40;;;;;;;;;;4970680;28;20416;-61
2022/09/04 15:25:01;;;;;;;3.42;1.70;;;;;;;;;;4971811;28;20432;-62
2022/09/04 15:27:49;;;;;;;5.45;2.08;;;;;;;;;;4972563;28;20305;-62
2022/09/04 15:30:21;;;;;;;3.50;1.80;;;;;;;;;;4970769;28;20467;-62
2022/09/04 15:32:48;;;;;;;2.15;1.35;;;;;;;;;;4970650;28;20625;-61
2022/09/04 15:35:20;;;;;;;2.47;1.60;;;;;;;;;;4953217;28;20456;-61
2022/09/04 15:37:51;;;;;;;2.45;1.40;;;;;;;;;;4970869;28;20444;-62
2022/09/04 15:40:56;;;;;;;2.72;1.42;;;;;;;;;;4952908;28;20535;-62
2022/09/04 15:43:42;;;;;;;1.70;1.30;;;;;;;;;;4950306;28;20428;-61
2022/09/04 15:46:17;;;;;;;3.47;1.70;;;;;;;;;;4952423;28;20479;-61
2022/09/04 15:49:36;;;;;;;3.45;1.73;;;;;;;;;;4952866;28;20341;-61
2022/09/04 15:52:11;;;;;;;2.85;1.80;;;;;;;;;;4928296;28;20335;-62
2022/09/04 15:54:39;;;;;;;6.70;2.17;;;;;;;;;;4951551;28;20372;-62
2022/09/04 15:57:18;;;;;;;6.90;3.13;;;;;;;;;;4969999;28;20337;-62
2022/09/04 15:59:57;;;;;;;2.10;1.60;;;;;;;;;;4953902;28;20499;-61
2022/09/04 16:02:41;;;;;;;4.85;1.95;;;;;;;;;;4971767;28;20368;-62
2022/09/04 16:05:15;;;;;;;4.85;2.35;;;;;;;;;;4970747;28;20037;-61
2022/09/04 16:08:02;;;;;;;3.70;2.30;;;;;;;;;;4952514;28;20448;-62
2022/09/04 16:10:57;;;;;;;2.75;1.80;;;;;;;;;;4952648;28;20131;-62
2022/09/04 16:13:25;;;;;;;2.67;2.20;;;;;;;;;;4969749;28;20440;-62
2022/09/04 16:16:00;;;;;;;4.57;1.88;;;;;;;;;;4970727;28;20433;-61
2022/09/04 16:18:33;;;;;;;3.63;2.00;;;;;;;;;;4952363;28;20463;-61
2022/09/04 16:21:00;;;;;;;4.20;2.25;;;;;;;;;;4971089;28;20451;-62
2022/09/04 16:23:29;;;;;;;3.15;2.03;;;;;;;;;;4970003;28;20034;-62
2022/09/04 16:25:56;;;;;;;2.75;1.90;;;;;;;;;;4951958;28;20025;-61